Terminal Aerodrome Forecast
Issued by NWS

Home | Current Version | Previous Version | Text Only | Print | Product List | Glossary On
Versions: 1 2 3 4 5 6 7 8 9 10 11 12 13 14 15
414
FTUS46 KEKA 150542
TAFCEC
TAF
KCEC 150542Z 1506/1606 00000KT 3SM BR OVC005
      TEMPO 1506/1510 1SM BR
     FM151000 35005KT 4SM BR SCT250
     FM151700 33006KT P6SM FEW025 BKN250
     FM152200 34011G15KT P6SM SCT025 OVC100=

USA.gov is the U.S. government's official web portal to all federal, state and local government web resources and services.